createdAt,value
2023-04-23T00:02:19.980Z,15.13
2023-04-23T00:07:32.993Z,15.14
2023-04-23T00:10:01.092Z,15.08
2023-04-23T00:12:29.721Z,15.16
2023-04-23T00:14:56.928Z,15.26
2023-04-23T00:17:23.748Z,15.13
2023-04-23T00:19:50.412Z,15.10
2023-04-23T00:22:17.445Z,15.06
2023-04-23T00:24:44.220Z,15.07
2023-04-23T00:27:10.954Z,15.08
2023-04-23T00:29:37.587Z,15.10
2023-04-23T00:32:04.756Z,15.01
2023-04-23T00:34:31.443Z,14.99
2023-04-23T00:36:58.066Z,14.99
2023-04-23T00:39:24.740Z,14.99
2023-04-23T00:41:51.759Z,14.98
2023-04-23T00:44:18.411Z,14.99
2023-04-23T00:46:46.495Z,15.01
2023-04-23T00:49:14.373Z,14.98
2023-04-23T00:54:12.818Z,14.87
2023-04-23T00:56:39.701Z,14.84
2023-04-23T00:59:06.464Z,14.87
2023-04-23T01:01:33.562Z,14.91
2023-04-23T01:06:33.918Z,14.80
2023-04-23T01:09:01.118Z,14.72
2023-04-23T01:11:27.948Z,14.60
2023-04-23T01:13:55.840Z,14.53
2023-04-23T01:16:22.544Z,14.46
2023-04-23T01:18:49.200Z,14.47
2023-04-23T01:21:17.251Z,14.45
2023-04-23T01:23:44.025Z,14.37
2023-04-23T01:26:11.081Z,14.31
2023-04-23T01:28:38.426Z,14.32
2023-04-23T01:31:05.612Z,14.29
2023-04-23T01:33:32.784Z,14.25
2023-04-23T01:36:00.869Z,14.22
2023-04-23T01:38:29.025Z,14.12
2023-04-23T01:40:55.693Z,14.18
2023-04-23T01:43:22.845Z,14.09
2023-04-23T01:45:49.673Z,14.11
2023-04-23T01:48:16.450Z,14.08
2023-04-23T01:50:43.855Z,14.09
2023-04-23T01:53:10.880Z,13.99
2023-04-23T01:55:39.456Z,13.93
2023-04-23T01:58:06.806Z,13.86
2023-04-23T02:00:33.469Z,13.86
2023-04-23T02:03:00.488Z,13.79
2023-04-23T02:05:29.138Z,13.76
2023-04-23T02:10:30.850Z,13.66
2023-04-23T02:12:59.360Z,13.74
2023-04-23T02:15:26.188Z,13.62
2023-04-23T02:17:53.151Z,13.65
2023-04-23T02:20:20.699Z,13.62
2023-04-23T02:22:48.541Z,13.75
2023-04-23T02:25:17.260Z,13.70
2023-04-23T02:27:44.775Z,13.59
2023-04-23T02:30:12.614Z,13.58
2023-04-23T02:32:39.727Z,13.47
2023-04-23T02:35:06.909Z,13.56
2023-04-23T02:37:34.027Z,13.72
2023-04-23T02:40:00.675Z,13.76
2023-04-23T02:42:27.415Z,13.86
2023-04-23T02:44:54.098Z,13.55
2023-04-23T02:47:20.926Z,13.44
2023-04-23T02:52:25.717Z,13.45
2023-04-23T02:54:52.327Z,13.42
2023-04-23T02:57:19.447Z,13.20
2023-04-23T02:59:46.564Z,13.02
2023-04-23T03:02:13.298Z,12.98
2023-04-23T03:04:40.535Z,12.98
2023-04-23T03:07:07.405Z,12.96
2023-04-23T03:09:34.127Z,13.24
2023-04-23T03:12:00.831Z,13.43
2023-04-23T03:14:27.479Z,13.43
2023-04-23T03:16:54.227Z,13.35
2023-04-23T03:19:20.855Z,13.31
2023-04-23T03:21:47.533Z,13.24
2023-04-23T03:24:15.362Z,13.14
2023-04-23T03:26:41.989Z,13.10
2023-04-23T03:31:39.988Z,13.01
2023-04-23T03:34:06.742Z,12.97
2023-04-23T03:36:33.470Z,12.86
2023-04-23T03:39:00.128Z,12.82
2023-04-23T03:41:26.761Z,12.90
2023-04-23T03:43:53.688Z,12.96
2023-04-23T03:46:20.374Z,13.09
2023-04-23T03:48:47.060Z,13.04
2023-04-23T03:51:13.764Z,13.17
2023-04-23T03:53:40.392Z,13.26
2023-04-23T03:58:38.498Z,13.10
2023-04-23T04:01:05.303Z,12.99
2023-04-23T04:08:38.273Z,13.13
2023-04-23T04:11:05.036Z,13.08
2023-04-23T04:13:31.713Z,13.03
2023-04-23T04:15:58.383Z,13.04
2023-04-23T04:18:25.031Z,13.01
2023-04-23T04:20:52.463Z,12.96
2023-04-23T04:23:19.298Z,13.17
2023-04-23T04:25:46.109Z,13.10
2023-04-23T04:28:12.991Z,13.05
2023-04-23T04:30:40.661Z,12.98
2023-04-23T04:33:07.288Z,12.95
2023-04-23T04:35:33.919Z,12.95
2023-04-23T04:38:00.585Z,12.97
2023-04-23T04:40:28.892Z,12.86
2023-04-23T04:42:55.607Z,12.92
2023-04-23T04:45:22.460Z,12.88
2023-04-23T04:47:49.180Z,12.87
2023-04-23T04:50:15.866Z,12.89
2023-04-23T04:52:42.501Z,12.85
2023-04-23T04:55:09.727Z,12.89
2023-04-23T04:57:36.804Z,12.89
2023-04-23T05:00:20.247Z,12.93
2023-04-23T05:02:47.993Z,12.86
2023-04-23T05:05:15.231Z,12.90
2023-04-23T05:07:41.972Z,12.90
2023-04-23T05:10:09.098Z,12.90
2023-04-23T05:12:35.868Z,13.05
2023-04-23T05:15:02.565Z,12.91
2023-04-23T05:20:00.523Z,12.93
2023-04-23T05:22:27.650Z,13.00
2023-04-23T05:24:54.408Z,13.07
2023-04-23T05:27:21.096Z,13.11
2023-04-23T05:29:47.798Z,13.26
2023-04-23T05:32:14.620Z,13.18
2023-04-23T05:34:41.842Z,13.26
2023-04-23T05:37:08.845Z,13.21
2023-04-23T05:39:35.514Z,13.31
2023-04-23T05:42:03.266Z,13.41
2023-04-23T05:47:03.753Z,13.51
2023-04-23T05:49:30.681Z,13.44
2023-04-23T05:51:59.481Z,13.51
2023-04-23T05:54:26.638Z,13.51
2023-04-23T05:56:54.649Z,13.55
2023-04-23T05:59:22.245Z,13.51
2023-04-23T06:01:49.485Z,13.47
2023-04-23T06:04:16.771Z,13.52
2023-04-23T06:06:43.955Z,13.50
2023-04-23T06:11:44.563Z,13.62
2023-04-23T06:14:11.267Z,13.53
2023-04-23T06:16:37.874Z,13.52
2023-04-23T06:19:04.547Z,13.55
2023-04-23T06:21:31.538Z,13.67
2023-04-23T06:23:58.270Z,13.88
2023-04-23T06:26:24.973Z,14.11
2023-04-23T06:28:51.618Z,14.39
2023-04-23T06:31:18.287Z,14.64
2023-04-23T06:33:44.917Z,14.69
2023-04-23T06:36:11.574Z,14.55
2023-04-23T06:38:38.610Z,14.40
2023-04-23T06:41:05.624Z,14.39
2023-04-23T06:43:32.951Z,14.35
2023-04-23T06:45:59.603Z,14.33
2023-04-23T06:48:26.719Z,14.42
2023-04-23T06:50:53.437Z,14.39
2023-04-23T06:53:20.217Z,14.41
2023-04-23T06:55:46.930Z,14.57
2023-04-23T06:58:14.230Z,14.74
2023-04-23T07:00:42.112Z,14.86
2023-04-23T07:03:09.084Z,15.05
2023-04-23T07:05:36.230Z,15.33
2023-04-23T07:08:02.964Z,15.73
2023-04-23T07:10:29.612Z,16.16
2023-04-23T07:15:27.741Z,16.05
2023-04-23T07:20:26.367Z,15.73
2023-04-23T07:22:53.113Z,15.67
2023-04-23T07:25:19.852Z,15.60
2023-04-23T07:27:46.475Z,15.64
2023-04-23T07:30:13.702Z,15.64
2023-04-23T07:32:40.511Z,15.69
2023-04-23T07:35:08.777Z,15.66
2023-04-23T07:37:35.569Z,16.17
2023-04-23T07:40:02.662Z,16.28
2023-04-23T07:42:29.341Z,16.03
2023-04-23T07:44:56.013Z,15.95
2023-04-23T07:47:22.984Z,15.71
2023-04-23T07:49:49.855Z,15.71
2023-04-23T07:52:17.182Z,15.66
2023-04-23T07:54:44.605Z,15.64
2023-04-23T07:57:12.448Z,15.76
2023-04-23T07:59:42.282Z,15.78
2023-04-23T08:02:09.381Z,15.62
2023-04-23T08:04:36.268Z,15.56
2023-04-23T08:07:03.056Z,15.47
2023-04-23T08:09:29.674Z,15.41
2023-04-23T08:11:57.813Z,15.23
2023-04-23T08:14:24.474Z,15.33
2023-04-23T08:16:51.107Z,15.20
2023-04-23T08:19:17.799Z,15.16
2023-04-23T08:21:44.445Z,15.18
2023-04-23T08:24:11.264Z,15.10
2023-04-23T08:26:37.968Z,15.06
2023-04-23T08:29:05.497Z,14.97
2023-04-23T08:31:32.793Z,15.09
2023-04-23T08:33:59.643Z,14.91
2023-04-23T08:36:27.817Z,14.93
2023-04-23T08:38:54.432Z,14.85
2023-04-23T08:41:23.983Z,15.03
2023-04-23T08:44:02.380Z,15.05
2023-04-23T08:46:33.165Z,15.15
2023-04-23T08:49:01.072Z,15.05
2023-04-23T08:51:30.640Z,15.05
2023-04-23T08:53:59.522Z,15.08
2023-04-23T08:56:27.638Z,15.19
2023-04-23T08:58:56.876Z,15.29
2023-04-23T09:01:23.978Z,15.39
2023-04-23T09:03:51.834Z,15.67
2023-04-23T09:06:20.061Z,15.87
2023-04-23T09:08:46.972Z,16.06
2023-04-23T09:11:14.161Z,16.23
2023-04-23T09:13:41.726Z,16.25
2023-04-23T09:16:08.634Z,16.32
2023-04-23T09:18:35.985Z,16.47
2023-04-23T09:21:04.569Z,16.47
2023-04-23T09:23:32.230Z,16.52
2023-04-23T09:25:58.977Z,16.67
2023-04-23T09:28:36.530Z,16.58
2023-04-23T09:31:05.732Z,16.80
2023-04-23T09:36:15.852Z,16.99
2023-04-23T09:38:42.518Z,17.14
2023-04-23T09:41:26.068Z,17.33
2023-04-23T09:43:56.849Z,17.81
2023-04-23T09:46:40.585Z,18.06
2023-04-23T09:49:08.090Z,17.85
2023-04-23T09:51:39.692Z,18.04
2023-04-23T09:56:51.215Z,18.77
2023-04-23T09:59:45.797Z,18.75
2023-04-23T10:02:15.614Z,17.76
2023-04-23T10:09:43.977Z,17.89
2023-04-23T10:12:27.817Z,18.09
2023-04-23T10:14:59.865Z,18.29
2023-04-23T10:20:01.937Z,18.42
2023-04-23T10:22:30.902Z,19.07
2023-04-23T10:25:01.144Z,19.26
2023-04-23T10:27:44.222Z,19.76
2023-04-23T10:30:16.515Z,19.13
2023-04-23T10:32:45.232Z,18.47
2023-04-23T10:35:12.006Z,18.49
2023-04-23T10:37:39.361Z,18.65
2023-04-23T10:40:13.046Z,18.41
2023-04-23T10:42:44.606Z,18.44
2023-04-23T10:47:49.085Z,18.26
2023-04-23T10:50:21.371Z,18.20
2023-04-23T10:52:51.792Z,18.47
2023-04-23T10:55:20.926Z,18.52
2023-04-23T10:58:00.792Z,18.70
2023-04-23T11:00:30.237Z,19.05
2023-04-23T11:02:57.100Z,19.00
2023-04-23T11:05:25.791Z,18.88
2023-04-23T11:10:57.272Z,19.37
2023-04-23T11:13:28.170Z,19.56
2023-04-23T11:16:14.597Z,20.09
2023-04-23T11:22:01.689Z,20.81
2023-04-23T11:24:34.031Z,21.15
2023-04-23T11:27:01.550Z,21.13
2023-04-23T11:29:28.853Z,21.52
2023-04-23T11:34:26.531Z,21.16
2023-04-23T11:36:54.966Z,20.73
2023-04-23T11:39:24.889Z,20.38
2023-04-23T11:41:52.597Z,20.06
2023-04-23T11:44:23.106Z,19.94
2023-04-23T11:46:50.787Z,19.40
2023-04-23T11:49:18.983Z,19.47
2023-04-23T11:51:46.959Z,19.26
2023-04-23T11:54:14.958Z,19.35
2023-04-23T11:56:42.217Z,19.37
2023-04-23T11:59:09.751Z,19.55
2023-04-23T12:01:57.126Z,19.63
2023-04-23T12:04:26.324Z,19.95
2023-04-23T12:06:54.875Z,19.84
2023-04-23T12:09:27.239Z,20.38
2023-04-23T12:11:54.300Z,20.45
2023-04-23T12:14:29.175Z,20.88
2023-04-23T12:19:30.418Z,20.90
2023-04-23T12:22:04.568Z,21.37
2023-04-23T12:24:45.465Z,21.13
2023-04-23T12:27:16.070Z,20.81
2023-04-23T12:32:27.157Z,20.67
2023-04-23T12:34:57.216Z,20.85
2023-04-23T12:37:28.940Z,20.68
2023-04-23T12:42:28.018Z,20.45
2023-04-23T12:44:57.448Z,20.95
2023-04-23T12:47:24.379Z,21.40
2023-04-23T12:49:54.080Z,21.44
2023-04-23T12:52:21.054Z,21.68
2023-04-23T12:54:52.002Z,22.18
2023-04-23T12:57:23.380Z,22.21
2023-04-23T12:59:50.442Z,22.44
2023-04-23T13:02:17.336Z,22.15
2023-04-23T13:04:44.227Z,22.28
2023-04-23T13:07:10.934Z,22.23
2023-04-23T13:09:37.549Z,22.12
2023-04-23T13:12:04.421Z,22.38
2023-04-23T13:14:32.469Z,22.65
2023-04-23T13:16:59.205Z,22.84
2023-04-23T13:19:26.515Z,22.70
2023-04-23T13:21:53.861Z,22.52
2023-04-23T13:24:20.728Z,22.49
2023-04-23T13:26:47.450Z,22.50
2023-04-23T13:29:14.203Z,22.53
2023-04-23T13:31:41.287Z,22.91
2023-04-23T13:34:08.429Z,22.48
2023-04-23T13:36:35.069Z,21.72
2023-04-23T13:39:01.773Z,21.92
2023-04-23T13:41:28.404Z,21.62
2023-04-23T13:43:55.007Z,21.85
2023-04-23T13:46:21.854Z,21.85
2023-04-23T13:48:48.489Z,21.58
2023-04-23T13:51:33.358Z,21.77
2023-04-23T13:54:01.875Z,21.84
2023-04-23T13:56:30.354Z,21.76
2023-04-23T13:59:15.546Z,21.35
2023-04-23T14:01:47.393Z,21.27
2023-04-23T14:04:14.165Z,21.22
2023-04-23T14:06:40.990Z,21.27
2023-04-23T14:09:07.676Z,21.27
2023-04-23T14:11:34.416Z,21.22
2023-04-23T14:14:01.438Z,20.97
2023-04-23T14:16:28.290Z,20.94
2023-04-23T14:18:55.144Z,21.03
2023-04-23T14:21:22.762Z,20.88
2023-04-23T14:23:52.103Z,21.17
2023-04-23T14:32:07.525Z,21.11
2023-04-23T14:34:36.884Z,21.06
2023-04-23T14:37:04.028Z,21.16
2023-04-23T14:39:30.938Z,21.37
2023-04-23T14:41:57.599Z,21.34
2023-04-23T14:44:26.589Z,21.26
2023-04-23T14:46:53.482Z,21.07
2023-04-23T14:49:23.285Z,21.12
2023-04-23T14:51:54.434Z,21.10
2023-04-23T14:54:24.185Z,21.14
2023-04-23T14:59:30.036Z,20.95
2023-04-23T15:01:57.198Z,20.85
2023-04-23T15:04:24.058Z,20.80
2023-04-23T15:06:50.774Z,20.78
2023-04-23T15:09:17.761Z,20.76
2023-04-23T15:11:44.607Z,20.68
2023-04-23T15:14:25.833Z,20.48
2023-04-23T15:16:52.781Z,20.49
2023-04-23T15:19:19.534Z,20.51
2023-04-23T15:21:46.936Z,20.56
2023-04-23T15:26:49.794Z,20.58
2023-04-23T15:29:16.695Z,20.53
2023-04-23T15:31:43.530Z,20.63
2023-04-23T15:34:11.722Z,20.64
2023-04-23T15:36:38.516Z,20.58
2023-04-23T15:39:06.588Z,20.46
2023-04-23T15:41:33.404Z,20.39
2023-04-23T15:44:00.549Z,20.30
2023-04-23T15:46:27.206Z,20.22
2023-04-23T15:48:53.881Z,19.96
2023-04-23T15:51:20.549Z,19.90
2023-04-23T15:53:47.265Z,19.83
2023-04-23T15:56:13.914Z,19.65
2023-04-23T15:58:40.681Z,19.51
2023-04-23T16:01:07.640Z,19.17
2023-04-23T16:03:34.739Z,18.83
2023-04-23T16:06:01.995Z,18.43
2023-04-23T16:08:28.717Z,18.03
2023-04-23T16:10:57.237Z,18.15
2023-04-23T16:13:24.594Z,17.90
2023-04-23T16:15:51.425Z,17.90
2023-04-23T16:18:18.194Z,17.90
2023-04-23T16:20:44.992Z,17.83
2023-04-23T16:23:11.736Z,17.92
2023-04-23T16:25:38.998Z,18.01
2023-04-23T16:28:05.716Z,18.00
2023-04-23T16:30:32.401Z,18.00
2023-04-23T16:38:11.253Z,17.95
2023-04-23T16:40:39.852Z,17.83
2023-04-23T16:43:06.579Z,17.81
2023-04-23T16:45:35.077Z,17.73
2023-04-23T16:48:01.802Z,17.29
2023-04-23T16:50:28.466Z,16.89
2023-04-23T16:52:56.122Z,16.39
2023-04-23T16:55:22.794Z,15.98
2023-04-23T17:02:52.168Z,15.56
2023-04-23T17:05:21.261Z,15.44
2023-04-23T17:07:48.004Z,15.25
2023-04-23T17:10:17.437Z,15.27
2023-04-23T17:12:44.123Z,15.35
2023-04-23T17:15:11.358Z,15.12
2023-04-23T17:17:38.677Z,15.10
2023-04-23T17:22:44.692Z,15.25
2023-04-23T17:25:11.492Z,15.08
2023-04-23T17:27:38.169Z,15.26
2023-04-23T17:30:05.720Z,15.32
2023-04-23T17:32:32.582Z,15.29
2023-04-23T17:35:09.534Z,15.36
2023-04-23T17:37:37.119Z,15.25
2023-04-23T17:40:06.060Z,15.24
2023-04-23T17:42:33.292Z,15.16
2023-04-23T17:44:59.994Z,15.27
2023-04-23T17:47:27.839Z,15.31
2023-04-23T17:49:54.678Z,15.17
2023-04-23T17:52:21.458Z,15.30
2023-04-23T17:54:48.134Z,15.29
2023-04-23T17:57:14.748Z,15.18
2023-04-23T17:59:41.725Z,15.05
2023-04-23T18:02:08.872Z,15.03
2023-04-23T18:04:37.025Z,14.96
2023-04-23T18:07:03.744Z,15.07
2023-04-23T18:09:30.407Z,15.01
2023-04-23T18:11:59.275Z,14.93
2023-04-23T18:14:26.019Z,14.96
2023-04-23T18:16:52.894Z,15.05
2023-04-23T18:19:19.672Z,14.89
2023-04-23T18:21:46.429Z,14.60
2023-04-23T18:24:13.593Z,14.71
2023-04-23T18:26:40.234Z,14.70
2023-04-23T18:29:06.936Z,14.67
2023-04-23T18:31:33.762Z,14.64
2023-04-23T18:34:03.880Z,14.23
2023-04-23T18:36:32.968Z,14.14
2023-04-23T18:39:00.288Z,14.22
2023-04-23T18:41:30.125Z,14.49
2023-04-23T18:43:57.395Z,14.39
2023-04-23T18:46:24.184Z,14.11
2023-04-23T18:49:29.479Z,13.96
2023-04-23T18:51:56.515Z,14.17
2023-04-23T18:54:25.721Z,14.38
2023-04-23T18:56:55.732Z,14.48
2023-04-23T18:59:22.425Z,14.35
2023-04-23T19:01:50.016Z,14.40
2023-04-23T19:04:16.993Z,14.27
2023-04-23T19:06:43.807Z,14.28
2023-04-23T19:09:10.614Z,14.29
2023-04-23T19:11:38.403Z,14.25
2023-04-23T19:14:05.366Z,14.21
2023-04-23T19:19:04.693Z,14.29
2023-04-23T19:21:31.885Z,14.36
2023-04-23T19:23:58.519Z,14.29
2023-04-23T19:26:25.182Z,14.28
2023-04-23T19:28:51.885Z,14.33
2023-04-23T19:31:18.672Z,14.28
2023-04-23T19:33:46.533Z,14.13
2023-04-23T19:36:14.169Z,14.16
2023-04-23T19:38:41.161Z,14.13
2023-04-23T19:41:08.267Z,14.06
2023-04-23T19:43:34.996Z,14.10
2023-04-23T19:46:02.213Z,14.05
2023-04-23T19:48:28.947Z,13.99
2023-04-23T19:50:55.761Z,13.87
2023-04-23T19:53:22.372Z,13.83
2023-04-23T19:55:49.006Z,13.79
2023-04-23T20:00:49.330Z,13.72
2023-04-23T20:03:16.273Z,13.62
2023-04-23T20:08:29.113Z,13.70
2023-04-23T20:13:32.056Z,13.52
2023-04-23T20:15:59.415Z,13.54
2023-04-23T20:18:29.308Z,13.51
2023-04-23T20:20:56.005Z,13.26
2023-04-23T20:23:22.706Z,13.29
2023-04-23T20:25:49.428Z,13.31
2023-04-23T20:28:16.494Z,13.23
2023-04-23T20:30:43.175Z,13.27
2023-04-23T20:33:10.643Z,13.12
2023-04-23T20:35:39.824Z,13.13
2023-04-23T20:38:06.551Z,13.16
2023-04-23T20:40:34.777Z,13.12
2023-04-23T20:43:01.517Z,13.03
2023-04-23T20:45:28.174Z,13.05
2023-04-23T20:50:28.717Z,12.97
2023-04-23T20:52:55.401Z,13.01
2023-04-23T20:55:22.124Z,13.02
2023-04-23T20:57:48.835Z,12.97
2023-04-23T21:00:16.082Z,13.03
2023-04-23T21:02:44.349Z,12.92
2023-04-23T21:05:12.232Z,12.93
2023-04-23T21:07:39.050Z,12.93
2023-04-23T21:10:06.328Z,12.87
2023-04-23T21:12:33.100Z,12.88
2023-04-23T21:14:59.728Z,12.78
2023-04-23T21:17:26.557Z,12.77
2023-04-23T21:19:53.274Z,12.64
2023-04-23T21:22:19.880Z,12.70
2023-04-23T21:27:21.950Z,12.64
2023-04-23T21:29:48.863Z,12.72
2023-04-23T21:32:16.187Z,12.69
2023-04-23T21:34:43.073Z,12.66
2023-04-23T21:37:09.773Z,12.63
2023-04-23T21:39:36.480Z,12.61
2023-04-23T21:42:03.388Z,12.67
2023-04-23T21:44:31.472Z,12.68
2023-04-23T21:46:58.213Z,12.75
2023-04-23T21:49:24.954Z,12.64
2023-04-23T21:51:54.709Z,12.56
2023-04-23T21:54:22.185Z,12.59
2023-04-23T21:56:48.943Z,12.63
2023-04-23T22:01:46.949Z,12.53
2023-04-23T22:04:14.333Z,12.66
2023-04-23T22:06:41.175Z,12.46
2023-04-23T22:09:07.893Z,12.49
2023-04-23T22:11:34.849Z,12.60
2023-04-23T22:14:02.024Z,12.54
2023-04-23T22:16:29.366Z,12.52
2023-04-23T22:18:58.824Z,12.58
2023-04-23T22:21:25.486Z,12.54
2023-04-23T22:23:52.137Z,12.45
2023-04-23T22:26:18.823Z,12.47
2023-04-23T22:28:45.483Z,12.47
2023-04-23T22:31:12.125Z,12.47
2023-04-23T22:33:39.696Z,12.61
2023-04-23T22:36:06.982Z,12.55
2023-04-23T22:38:33.802Z,12.53
2023-04-23T22:41:00.462Z,12.60
2023-04-23T22:43:27.178Z,12.50
2023-04-23T22:45:53.818Z,12.52
2023-04-23T22:48:21.524Z,12.58
2023-04-23T22:50:51.086Z,12.56
2023-04-23T22:53:19.688Z,12.51
2023-04-23T22:55:46.802Z,12.55
2023-04-23T22:58:13.451Z,12.63
2023-04-23T23:00:40.549Z,12.60
2023-04-23T23:03:07.314Z,12.66
2023-04-23T23:05:34.387Z,12.66
2023-04-23T23:08:01.017Z,12.58
2023-04-23T23:10:28.929Z,12.62
2023-04-23T23:12:55.608Z,12.56
2023-04-23T23:15:22.244Z,12.62
2023-04-23T23:17:48.911Z,12.67
2023-04-23T23:20:16.589Z,12.66
2023-04-23T23:22:43.297Z,12.55
2023-04-23T23:25:10.062Z,12.54
2023-04-23T23:27:36.742Z,12.59
2023-04-23T23:30:06.229Z,12.65
2023-04-23T23:32:33.470Z,12.56
2023-04-23T23:35:00.570Z,12.48
2023-04-23T23:37:27.455Z,12.52
2023-04-23T23:39:54.108Z,12.57
2023-04-23T23:42:20.767Z,12.58
2023-04-23T23:44:47.427Z,12.53
2023-04-23T23:47:14.196Z,12.52
2023-04-23T23:49:42.176Z,12.58
2023-04-23T23:52:09.030Z,12.54
2023-04-23T23:54:36.131Z,12.59
2023-04-23T23:57:02.832Z,12.54
2023-04-23T23:59:29.467Z,12.55
